Airfield :
LOGIN :

Register | Disclaimer

   EN    FR    IT 

 










Legend :    VFR   Marginal VFR   IFR   Intensive IFR   Very Intensive IFR
Visi :
Ceiling :
>= 8 km
>= 3000ft
5 to 8 km
1000 to 3000 ft
1500m to 5 km
500 to 1000 ft
800 to 1500m
200 to 500 ft
< 800m
< 200 ft
Symbols :   Thunderstorms  Fog  Heavy snow  Heavy precipitations  Wind > 20 kt
SIGMETs :     Misc.  Thunderstorms  Icing  Turbulence  Mountain Waves  Volcanic Ashes







- Airport Elevation : 13 ft
- IATA code : SNR
- Download approach charts


LFRZ - St-Nazaire

CURRENT METAR :
  • 281230Z AUTO 21017KT 9999 FEW030 BKN037 BKN045 22/15 Q1016 TEMPO 24017G27KT

EXPIRED METARs :
  • 281200Z AUTO 21016KT 9999 BKN037 OVC046 20/15 Q1016 TEMPO 24017G27KT
  • 281130Z AUTO 20016KT 9999 FEW032 BKN040 BKN046 21/15 Q1016 TEMPO 24017G27KT
  • 281100Z AUTO 21016KT 9999 FEW020 BKN035 BKN043 21/15 Q1016 TEMPO 27014G24KT
  • 281030Z AUTO 21016KT 9999 SCT034 SCT056 BKN084 21/15 Q1016 TEMPO 27014G24KT
  • 281000Z AUTO 21017KT 9999 FEW028 BKN035 BKN045 21/15 Q1016 TEMPO 27014G24KT

TAF TAF LFRZ
Valid from the 28 at 06:00 until the 29 at 06:00 UTC


280500Z 2806/2906 24008KT 9999 BKN025
TEMPO 2809/2819 27014G24KT
BECMG 2900/2903 BKN013 OVC020
TEMPO 2903/2906 4000 -DZRA BKN007 OVC012
No reported NOTAMs for that airfield.



MET'MAP, your aeronautical weather chart ! - Copyright ORBIFLY December 2007 - Disclaimer

ORBIFLY MET'MAP TEAM :

Programming & Development : Alexandra Zaïnal
Concept & Development : Baudouin d'Aumeries
Co-Development & Prog : Marc-Olivier Méhu
Technical & hardware support : Manuel Goepfert

Contact : metmap@orbifly.com




SOURCES & CREDITS :

   NOAA